sensor_id;sensor_type;location;lat;lon;timestamp;temperature;humidity
28189;DHT22;15471;51.166;4.470;2023-02-03T00:01:30;9.70;99.90
28189;DHT22;15471;51.166;4.470;2023-02-03T00:03:56;9.80;99.90
28189;DHT22;15471;51.166;4.470;2023-02-03T00:06:22;9.80;99.90
28189;DHT22;15471;51.166;4.470;2023-02-03T00:08:48;9.80;99.90
28189;DHT22;15471;51.166;4.470;2023-02-03T00:11:14;9.80;99.90
28189;DHT22;15471;51.166;4.470;2023-02-03T00:13:39;9.80;99.90
28189;DHT22;15471;51.166;4.470;2023-02-03T00:16:05;9.80;99.90
28189;DHT22;15471;51.166;4.470;2023-02-03T00:18:32;9.90;99.90
28189;DHT22;15471;51.166;4.470;2023-02-03T00:20:58;9.90;99.90
28189;DHT22;15471;51.166;4.470;2023-02-03T00:23:24;9.90;99.90
28189;DHT22;15471;51.166;4.470;2023-02-03T00:25:51;9.90;99.90
28189;DHT22;15471;51.166;4.470;2023-02-03T00:28:17;9.90;99.90
28189;DHT22;15471;51.166;4.470;2023-02-03T00:30:43;9.90;99.90
28189;DHT22;15471;51.166;4.470;2023-02-03T00:33:09;9.80;99.90
28189;DHT22;15471;51.166;4.470;2023-02-03T00:35:38;9.80;99.90
28189;DHT22;15471;51.166;4.470;2023-02-03T00:38:04;9.80;99.90
28189;DHT22;15471;51.166;4.470;2023-02-03T00:40:30;9.70;99.90
28189;DHT22;15471;51.166;4.470;2023-02-03T00:42:56;9.70;99.90
28189;DHT22;15471;51.166;4.470;2023-02-03T00:45:22;9.70;99.90
28189;DHT22;15471;51.166;4.470;2023-02-03T00:47:48;9.80;99.90
28189;DHT22;15471;51.166;4.470;2023-02-03T00:50:14;10.00;99.90
28189;DHT22;15471;51.166;4.470;2023-02-03T00:52:40;9.90;99.90
28189;DHT22;15471;51.166;4.470;2023-02-03T00:55:07;10.00;99.90
28189;DHT22;15471;51.166;4.470;2023-02-03T00:57:33;10.00;99.90
28189;DHT22;15471;51.166;4.470;2023-02-03T00:59:58;9.90;99.90
28189;DHT22;15471;51.166;4.470;2023-02-03T01:02:24;9.80;99.90
28189;DHT22;15471;51.166;4.470;2023-02-03T01:04:51;9.90;99.90
28189;DHT22;15471;51.166;4.470;2023-02-03T01:07:17;9.90;99.90
28189;DHT22;15471;51.166;4.470;2023-02-03T01:09:43;9.90;99.90
28189;DHT22;15471;51.166;4.470;2023-02-03T01:12:09;9.90;99.90
28189;DHT22;15471;51.166;4.470;2023-02-03T01:14:35;9.80;99.90
28189;DHT22;15471;51.166;4.470;2023-02-03T01:17:03;9.90;99.90
28189;DHT22;15471;51.166;4.470;2023-02-03T01:19:29;9.90;99.90
28189;DHT22;15471;51.166;4.470;2023-02-03T01:21:54;10.00;99.90
28189;DHT22;15471;51.166;4.470;2023-02-03T01:24:20;9.90;99.90
28189;DHT22;15471;51.166;4.470;2023-02-03T01:26:46;9.90;99.90
28189;DHT22;15471;51.166;4.470;2023-02-03T01:29:13;9.90;99.90
28189;DHT22;15471;51.166;4.470;2023-02-03T01:31:40;9.90;99.90
28189;DHT22;15471;51.166;4.470;2023-02-03T01:34:10;9.90;99.90
28189;DHT22;15471;51.166;4.470;2023-02-03T01:36:36;9.90;99.90
28189;DHT22;15471;51.166;4.470;2023-02-03T01:39:04;9.90;99.90
28189;DHT22;15471;51.166;4.470;2023-02-03T01:41:33;9.90;99.90
28189;DHT22;15471;51.166;4.470;2023-02-03T01:44:01;9.90;99.90
28189;DHT22;15471;51.166;4.470;2023-02-03T01:46:40;10.00;99.90
28189;DHT22;15471;51.166;4.470;2023-02-03T01:49:25;10.00;99.90
28189;DHT22;15471;51.166;4.470;2023-02-03T01:51:51;10.00;99.90
28189;DHT22;15471;51.166;4.470;2023-02-03T01:54:25;10.00;99.90
28189;DHT22;15471;51.166;4.470;2023-02-03T01:57:00;10.00;99.90
28189;DHT22;15471;51.166;4.470;2023-02-03T01:59:28;10.00;99.90
28189;DHT22;15471;51.166;4.470;2023-02-03T02:01:55;10.00;99.90
28189;DHT22;15471;51.166;4.470;2023-02-03T02:04:25;10.00;99.90
28189;DHT22;15471;51.166;4.470;2023-02-03T02:06:51;10.10;99.90
28189;DHT22;15471;51.166;4.470;2023-02-03T02:09:17;10.10;99.90
28189;DHT22;15471;51.166;4.470;2023-02-03T02:11:43;10.10;99.90
28189;DHT22;15471;51.166;4.470;2023-02-03T02:14:09;10.10;99.90
28189;DHT22;15471;51.166;4.470;2023-02-03T02:36:58;10.10;99.90
28189;DHT22;15471;51.166;4.470;2023-02-03T02:42:12;10.00;99.90
28189;DHT22;15471;51.166;4.470;2023-02-03T02:44:52;10.00;99.90
28189;DHT22;15471;51.166;4.470;2023-02-03T02:47:22;9.90;99.90
28189;DHT22;15471;51.166;4.470;2023-02-03T02:52:16;9.90;99.90
28189;DHT22;15471;51.166;4.470;2023-02-03T02:54:46;9.90;99.90
28189;DHT22;15471;51.166;4.470;2023-02-03T02:57:13;9.90;99.90
28189;DHT22;15471;51.166;4.470;2023-02-03T02:59:41;10.00;99.90
28189;DHT22;15471;51.166;4.470;2023-02-03T03:02:09;9.90;99.90
28189;DHT22;15471;51.166;4.470;2023-02-03T03:04:38;10.00;99.90
28189;DHT22;15471;51.166;4.470;2023-02-03T03:07:14;10.00;99.90
28189;DHT22;15471;51.166;4.470;2023-02-03T03:09:52;10.00;99.90
28189;DHT22;15471;51.166;4.470;2023-02-03T03:14:54;9.90;99.90
28189;DHT22;15471;51.166;4.470;2023-02-03T03:17:26;10.00;99.90
28189;DHT22;15471;51.166;4.470;2023-02-03T03:19:55;9.90;99.90
28189;DHT22;15471;51.166;4.470;2023-02-03T03:22:29;10.00;99.90
28189;DHT22;15471;51.166;4.470;2023-02-03T03:25:07;10.00;99.90
28189;DHT22;15471;51.166;4.470;2023-02-03T03:27:37;9.90;99.90
28189;DHT22;15471;51.166;4.470;2023-02-03T03:30:22;9.90;99.90
28189;DHT22;15471;51.166;4.470;2023-02-03T03:32:50;9.90;99.90
28189;DHT22;15471;51.166;4.470;2023-02-03T03:35:16;9.90;99.90
28189;DHT22;15471;51.166;4.470;2023-02-03T03:37:48;10.00;99.90
28189;DHT22;15471;51.166;4.470;2023-02-03T03:40:23;10.00;99.90
28189;DHT22;15471;51.166;4.470;2023-02-03T03:43:02;10.00;99.90
28189;DHT22;15471;51.166;4.470;2023-02-03T03:45:48;9.90;99.90
28189;DHT22;15471;51.166;4.470;2023-02-03T03:48:22;9.90;99.90
28189;DHT22;15471;51.166;4.470;2023-02-03T03:50:54;10.00;99.90
28189;DHT22;15471;51.166;4.470;2023-02-03T03:53:22;10.00;99.90
28189;DHT22;15471;51.166;4.470;2023-02-03T03:55:50;10.00;99.90
28189;DHT22;15471;51.166;4.470;2023-02-03T03:58:23;10.00;99.90
28189;DHT22;15471;51.166;4.470;2023-02-03T04:00:52;10.00;99.90
28189;DHT22;15471;51.166;4.470;2023-02-03T04:03:32;10.10;99.90
28189;DHT22;15471;51.166;4.470;2023-02-03T04:06:02;10.00;99.90
28189;DHT22;15471;51.166;4.470;2023-02-03T04:08:28;10.00;99.90
28189;DHT22;15471;51.166;4.470;2023-02-03T04:10:53;10.00;99.90
28189;DHT22;15471;51.166;4.470;2023-02-03T04:13:19;10.10;99.90
28189;DHT22;15471;51.166;4.470;2023-02-03T04:15:45;10.10;99.90
28189;DHT22;15471;51.166;4.470;2023-02-03T04:18:13;10.10;99.90
28189;DHT22;15471;51.166;4.470;2023-02-03T04:20:39;10.00;99.90
28189;DHT22;15471;51.166;4.470;2023-02-03T04:23:05;10.00;99.90
28189;DHT22;15471;51.166;4.470;2023-02-03T04:25:30;10.00;99.90
28189;DHT22;15471;51.166;4.470;2023-02-03T04:27:56;10.00;99.90
28189;DHT22;15471;51.166;4.470;2023-02-03T04:30:22;9.90;99.90
28189;DHT22;15471;51.166;4.470;2023-02-03T04:32:48;9.80;99.90
28189;DHT22;15471;51.166;4.470;2023-02-03T04:35:15;9.80;99.90
28189;DHT22;15471;51.166;4.470;2023-02-03T04:37:40;9.90;99.90
28189;DHT22;15471;51.166;4.470;2023-02-03T04:40:07;9.90;99.90
28189;DHT22;15471;51.166;4.470;2023-02-03T04:42:39;9.90;99.90
28189;DHT22;15471;51.166;4.470;2023-02-03T04:45:06;9.90;99.90
28189;DHT22;15471;51.166;4.470;2023-02-03T04:47:33;10.00;99.90
28189;DHT22;15471;51.166;4.470;2023-02-03T04:49:59;9.90;99.90
28189;DHT22;15471;51.166;4.470;2023-02-03T04:52:25;10.00;99.90
28189;DHT22;15471;51.166;4.470;2023-02-03T04:54:51;10.10;99.90
28189;DHT22;15471;51.166;4.470;2023-02-03T04:57:18;10.00;99.90
28189;DHT22;15471;51.166;4.470;2023-02-03T04:59:43;10.00;99.90
28189;DHT22;15471;51.166;4.470;2023-02-03T05:02:09;9.90;99.90
28189;DHT22;15471;51.166;4.470;2023-02-03T05:04:35;10.00;99.90
28189;DHT22;15471;51.166;4.470;2023-02-03T05:07:01;10.00;99.90
28189;DHT22;15471;51.166;4.470;2023-02-03T05:09:27;10.10;99.90
28189;DHT22;15471;51.166;4.470;2023-02-03T05:11:53;10.30;99.90
28189;DHT22;15471;51.166;4.470;2023-02-03T05:14:19;10.20;99.90
28189;DHT22;15471;51.166;4.470;2023-02-03T05:16:45;10.20;99.90
28189;DHT22;15471;51.166;4.470;2023-02-03T05:19:11;10.20;99.90
28189;DHT22;15471;51.166;4.470;2023-02-03T05:21:37;10.20;99.90
28189;DHT22;15471;51.166;4.470;2023-02-03T05:24:03;10.10;99.90
28189;DHT22;15471;51.166;4.470;2023-02-03T05:26:33;10.10;99.90
28189;DHT22;15471;51.166;4.470;2023-02-03T05:28:59;10.10;99.90
28189;DHT22;15471;51.166;4.470;2023-02-03T05:31:25;10.10;99.90
28189;DHT22;15471;51.166;4.470;2023-02-03T05:33:51;10.00;99.90
28189;DHT22;15471;51.166;4.470;2023-02-03T05:36:17;10.00;99.90
28189;DHT22;15471;51.166;4.470;2023-02-03T05:38:43;10.00;99.90
28189;DHT22;15471;51.166;4.470;2023-02-03T05:41:11;10.00;99.90
28189;DHT22;15471;51.166;4.470;2023-02-03T05:43:55;10.00;99.90
28189;DHT22;15471;51.166;4.470;2023-02-03T05:46:21;10.00;99.90
28189;DHT22;15471;51.166;4.470;2023-02-03T05:48:47;9.90;99.90
28189;DHT22;15471;51.166;4.470;2023-02-03T05:51:13;9.90;99.90
28189;DHT22;15471;51.166;4.470;2023-02-03T05:53:38;10.00;99.90
28189;DHT22;15471;51.166;4.470;2023-02-03T05:56:05;10.10;99.90
28189;DHT22;15471;51.166;4.470;2023-02-03T05:58:31;10.00;99.90
28189;DHT22;15471;51.166;4.470;2023-02-03T06:00:56;10.10;99.90
28189;DHT22;15471;51.166;4.470;2023-02-03T06:03:22;10.10;99.90
28189;DHT22;15471;51.166;4.470;2023-02-03T06:05:48;10.30;99.90
28189;DHT22;15471;51.166;4.470;2023-02-03T06:08:14;10.20;99.90
28189;DHT22;15471;51.166;4.470;2023-02-03T06:10:40;10.20;99.90
28189;DHT22;15471;51.166;4.470;2023-02-03T06:13:11;10.10;99.90
28189;DHT22;15471;51.166;4.470;2023-02-03T06:15:38;10.20;99.90
28189;DHT22;15471;51.166;4.470;2023-02-03T06:18:04;10.10;99.90
28189;DHT22;15471;51.166;4.470;2023-02-03T06:20:30;10.10;99.90
28189;DHT22;15471;51.166;4.470;2023-02-03T06:22:55;10.10;99.90
28189;DHT22;15471;51.166;4.470;2023-02-03T06:25:21;10.10;99.90
28189;DHT22;15471;51.166;4.470;2023-02-03T06:27:49;10.20;99.90
28189;DHT22;15471;51.166;4.470;2023-02-03T06:30:15;10.10;99.90
28189;DHT22;15471;51.166;4.470;2023-02-03T06:32:41;10.10;99.90
28189;DHT22;15471;51.166;4.470;2023-02-03T06:35:07;10.10;99.90
28189;DHT22;15471;51.166;4.470;2023-02-03T06:37:32;10.10;99.90
28189;DHT22;15471;51.166;4.470;2023-02-03T06:40:00;10.00;99.90
28189;DHT22;15471;51.166;4.470;2023-02-03T06:42:28;10.00;99.90
28189;DHT22;15471;51.166;4.470;2023-02-03T06:44:54;9.90;99.90
28189;DHT22;15471;51.166;4.470;2023-02-03T06:47:20;10.00;99.90
28189;DHT22;15471;51.166;4.470;2023-02-03T06:49:46;10.20;99.90
28189;DHT22;15471;51.166;4.470;2023-02-03T06:52:12;10.20;99.90
28189;DHT22;15471;51.166;4.470;2023-02-03T06:54:40;10.20;99.90
28189;DHT22;15471;51.166;4.470;2023-02-03T06:57:06;10.20;99.90
28189;DHT22;15471;51.166;4.470;2023-02-03T06:59:32;10.20;99.90
28189;DHT22;15471;51.166;4.470;2023-02-03T07:01:58;10.20;99.90
28189;DHT22;15471;51.166;4.470;2023-02-03T07:04:23;10.20;99.90
28189;DHT22;15471;51.166;4.470;2023-02-03T07:06:49;10.20;99.90
28189;DHT22;15471;51.166;4.470;2023-02-03T07:09:15;10.30;99.90
28189;DHT22;15471;51.166;4.470;2023-02-03T07:11:41;10.30;99.90
28189;DHT22;15471;51.166;4.470;2023-02-03T07:14:07;10.30;99.90
28189;DHT22;15471;51.166;4.470;2023-02-03T07:16:33;10.30;99.90
28189;DHT22;15471;51.166;4.470;2023-02-03T07:18:59;10.20;99.90
28189;DHT22;15471;51.166;4.470;2023-02-03T07:21:25;10.20;99.90
28189;DHT22;15471;51.166;4.470;2023-02-03T07:23:51;10.10;99.90
28189;DHT22;15471;51.166;4.470;2023-02-03T07:26:17;10.10;99.90
28189;DHT22;15471;51.166;4.470;2023-02-03T07:28:43;10.10;99.90
28189;DHT22;15471;51.166;4.470;2023-02-03T07:31:09;10.00;99.90
28189;DHT22;15471;51.166;4.470;2023-02-03T07:33:36;10.00;99.90
28189;DHT22;15471;51.166;4.470;2023-02-03T07:36:02;10.00;99.90
28189;DHT22;15471;51.166;4.470;2023-02-03T07:38:28;9.90;99.90
28189;DHT22;15471;51.166;4.470;2023-02-03T07:40:54;9.90;99.90
28189;DHT22;15471;51.166;4.470;2023-02-03T07:43:20;9.80;99.90
28189;DHT22;15471;51.166;4.470;2023-02-03T07:45:46;9.80;99.90
28189;DHT22;15471;51.166;4.470;2023-02-03T07:48:12;9.90;99.90
28189;DHT22;15471;51.166;4.470;2023-02-03T07:50:38;10.00;99.90
28189;DHT22;15471;51.166;4.470;2023-02-03T07:53:05;10.10;99.90
28189;DHT22;15471;51.166;4.470;2023-02-03T07:55:30;10.10;99.90
28189;DHT22;15471;51.166;4.470;2023-02-03T07:57:57;10.10;99.90
28189;DHT22;15471;51.166;4.470;2023-02-03T08:00:24;10.10;99.90
28189;DHT22;15471;51.166;4.470;2023-02-03T08:02:50;10.00;99.90
28189;DHT22;15471;51.166;4.470;2023-02-03T08:05:16;10.10;99.90
28189;DHT22;15471;51.166;4.470;2023-02-03T08:07:43;10.10;99.90
28189;DHT22;15471;51.166;4.470;2023-02-03T08:10:11;10.00;99.90
28189;DHT22;15471;51.166;4.470;2023-02-03T08:12:38;10.00;99.90
28189;DHT22;15471;51.166;4.470;2023-02-03T08:15:05;10.00;99.90
28189;DHT22;15471;51.166;4.470;2023-02-03T08:17:31;10.10;99.90
28189;DHT22;15471;51.166;4.470;2023-02-03T08:19:58;10.10;99.90
28189;DHT22;15471;51.166;4.470;2023-02-03T08:22:24;10.10;99.90
28189;DHT22;15471;51.166;4.470;2023-02-03T08:24:50;10.20;99.90
28189;DHT22;15471;51.166;4.470;2023-02-03T08:27:19;10.20;99.90
28189;DHT22;15471;51.166;4.470;2023-02-03T08:29:46;10.30;99.90
28189;DHT22;15471;51.166;4.470;2023-02-03T08:32:14;10.50;99.90
28189;DHT22;15471;51.166;4.470;2023-02-03T08:34:41;10.60;99.90
28189;DHT22;15471;51.166;4.470;2023-02-03T08:37:07;10.50;99.90
28189;DHT22;15471;51.166;4.470;2023-02-03T08:39:34;10.50;99.90
28189;DHT22;15471;51.166;4.470;2023-02-03T08:42:00;10.40;99.90
28189;DHT22;15471;51.166;4.470;2023-02-03T08:44:29;10.40;99.90
28189;DHT22;15471;51.166;4.470;2023-02-03T08:46:55;10.40;99.90
28189;DHT22;15471;51.166;4.470;2023-02-03T08:49:20;10.50;99.90
28189;DHT22;15471;51.166;4.470;2023-02-03T08:51:47;10.50;99.90
28189;DHT22;15471;51.166;4.470;2023-02-03T08:54:13;10.50;99.90
28189;DHT22;15471;51.166;4.470;2023-02-03T08:56:40;10.50;99.90
28189;DHT22;15471;51.166;4.470;2023-02-03T08:59:06;10.40;99.90
28189;DHT22;15471;51.166;4.470;2023-02-03T09:01:31;10.40;99.90
28189;DHT22;15471;51.166;4.470;2023-02-03T09:03:57;10.30;99.90
28189;DHT22;15471;51.166;4.470;2023-02-03T09:06:26;10.40;99.90
28189;DHT22;15471;51.166;4.470;2023-02-03T09:08:54;10.50;99.90
28189;DHT22;15471;51.166;4.470;2023-02-03T09:11:19;10.40;99.90
28189;DHT22;15471;51.166;4.470;2023-02-03T09:13:46;10.50;99.90
28189;DHT22;15471;51.166;4.470;2023-02-03T09:16:16;10.50;99.90
28189;DHT22;15471;51.166;4.470;2023-02-03T09:18:43;10.60;99.90
28189;DHT22;15471;51.166;4.470;2023-02-03T09:21:10;10.70;99.90
28189;DHT22;15471;51.166;4.470;2023-02-03T09:23:37;10.70;99.90
28189;DHT22;15471;51.166;4.470;2023-02-03T09:26:07;10.60;99.90
28189;DHT22;15471;51.166;4.470;2023-02-03T09:28:34;10.60;99.90
28189;DHT22;15471;51.166;4.470;2023-02-03T09:31:02;10.70;99.90
28189;DHT22;15471;51.166;4.470;2023-02-03T09:33:28;10.70;99.90
28189;DHT22;15471;51.166;4.470;2023-02-03T09:35:55;10.80;99.90
28189;DHT22;15471;51.166;4.470;2023-02-03T09:38:21;10.80;99.90
28189;DHT22;15471;51.166;4.470;2023-02-03T09:40:54;10.80;99.90
28189;DHT22;15471;51.166;4.470;2023-02-03T09:43:40;10.80;99.90
28189;DHT22;15471;51.166;4.470;2023-02-03T09:46:14;10.80;99.90
28189;DHT22;15471;51.166;4.470;2023-02-03T09:48:44;10.90;99.90
28189;DHT22;15471;51.166;4.470;2023-02-03T09:51:24;10.80;99.90
28189;DHT22;15471;51.166;4.470;2023-02-03T09:54:00;10.70;99.90
28189;DHT22;15471;51.166;4.470;2023-02-03T09:56:33;10.80;99.90
28189;DHT22;15471;51.166;4.470;2023-02-03T09:58:59;10.80;99.90
28189;DHT22;15471;51.166;4.470;2023-02-03T10:01:33;10.80;99.90
28189;DHT22;15471;51.166;4.470;2023-02-03T10:04:05;11.00;99.90
28189;DHT22;15471;51.166;4.470;2023-02-03T10:06:44;11.10;99.90
28189;DHT22;15471;51.166;4.470;2023-02-03T10:09:32;11.20;99.90
28189;DHT22;15471;51.166;4.470;2023-02-03T10:17:41;11.10;99.90
28189;DHT22;15471;51.166;4.470;2023-02-03T10:22:43;11.00;99.90
28189;DHT22;15471;51.166;4.470;2023-02-03T10:27:40;11.20;99.90
28189;DHT22;15471;51.166;4.470;2023-02-03T10:30:20;11.10;99.90
28189;DHT22;15471;51.166;4.470;2023-02-03T10:32:56;11.00;99.90
28189;DHT22;15471;51.166;4.470;2023-02-03T10:35:33;11.10;99.90
28189;DHT22;15471;51.166;4.470;2023-02-03T10:38:01;11.20;99.90
28189;DHT22;15471;51.166;4.470;2023-02-03T10:40:28;11.20;99.90
28189;DHT22;15471;51.166;4.470;2023-02-03T10:42:54;11.20;99.90
28189;DHT22;15471;51.166;4.470;2023-02-03T10:45:38;11.20;99.90
28189;DHT22;15471;51.166;4.470;2023-02-03T10:48:09;11.10;99.90
28189;DHT22;15471;51.166;4.470;2023-02-03T10:50:37;11.10;99.90
28189;DHT22;15471;51.166;4.470;2023-02-03T10:53:24;11.10;99.90
28189;DHT22;15471;51.166;4.470;2023-02-03T10:58:26;11.20;99.90
28189;DHT22;15471;51.166;4.470;2023-02-03T11:03:34;11.20;99.90
28189;DHT22;15471;51.166;4.470;2023-02-03T11:08:29;11.10;99.90
28189;DHT22;15471;51.166;4.470;2023-02-03T11:11:08;11.20;99.90
28189;DHT22;15471;51.166;4.470;2023-02-03T11:13:34;11.20;99.90
28189;DHT22;15471;51.166;4.470;2023-02-03T11:16:13;11.40;99.90
28189;DHT22;15471;51.166;4.470;2023-02-03T11:18:59;11.50;99.90
28189;DHT22;15471;51.166;4.470;2023-02-03T11:21:28;11.50;99.90
28189;DHT22;15471;51.166;4.470;2023-02-03T11:26:45;11.30;99.90
28189;DHT22;15471;51.166;4.470;2023-02-03T11:29:23;11.20;99.90
28189;DHT22;15471;51.166;4.470;2023-02-03T11:31:51;11.10;99.90
28189;DHT22;15471;51.166;4.470;2023-02-03T11:34:23;11.10;99.90
28189;DHT22;15471;51.166;4.470;2023-02-03T11:36:50;11.00;99.90
28189;DHT22;15471;51.166;4.470;2023-02-03T11:39:22;11.00;99.90
28189;DHT22;15471;51.166;4.470;2023-02-03T11:41:48;11.00;99.90
28189;DHT22;15471;51.166;4.470;2023-02-03T11:46:53;11.00;99.90
28189;DHT22;15471;51.166;4.470;2023-02-03T11:49:48;11.00;99.90
28189;DHT22;15471;51.166;4.470;2023-02-03T12:09:53;11.10;99.90
28189;DHT22;15471;51.166;4.470;2023-02-03T12:26:22;11.10;99.90
28189;DHT22;15471;51.166;4.470;2023-02-03T12:29:05;11.10;99.90
28189;DHT22;15471;51.166;4.470;2023-02-03T12:39:50;11.20;99.90
28189;DHT22;15471;51.166;4.470;2023-02-03T12:42:26;11.40;99.90
28189;DHT22;15471;51.166;4.470;2023-02-03T12:45:20;11.30;99.90
28189;DHT22;15471;51.166;4.470;2023-02-03T12:48:25;11.30;99.90
28189;DHT22;15471;51.166;4.470;2023-02-03T12:50:49;11.50;99.90
28189;DHT22;15471;51.166;4.470;2023-02-03T12:53:26;11.50;99.90
28189;DHT22;15471;51.166;4.470;2023-02-03T12:56:17;11.50;99.90
28189;DHT22;15471;51.166;4.470;2023-02-03T12:58:53;11.60;99.90
28189;DHT22;15471;51.166;4.470;2023-02-03T13:01:33;11.60;99.90
28189;DHT22;15471;51.166;4.470;2023-02-03T13:04:40;11.60;99.90
28189;DHT22;15471;51.166;4.470;2023-02-03T13:10:05;11.70;99.90
28189;DHT22;15471;51.166;4.470;2023-02-03T13:12:44;11.70;99.90
28189;DHT22;15471;51.166;4.470;2023-02-03T13:15:20;11.50;99.90
28189;DHT22;15471;51.166;4.470;2023-02-03T13:20:41;11.40;99.90
28189;DHT22;15471;51.166;4.470;2023-02-03T13:23:11;11.40;99.90
28189;DHT22;15471;51.166;4.470;2023-02-03T13:25:57;11.50;99.90
28189;DHT22;15471;51.166;4.470;2023-02-03T13:31:20;11.50;99.90
28189;DHT22;15471;51.166;4.470;2023-02-03T13:37:10;11.30;99.90
28189;DHT22;15471;51.166;4.470;2023-02-03T13:42:32;11.20;99.90
28189;DHT22;15471;51.166;4.470;2023-02-03T13:45:06;11.10;99.90
28189;DHT22;15471;51.166;4.470;2023-02-03T13:47:33;11.20;99.90
28189;DHT22;15471;51.166;4.470;2023-02-03T13:50:14;11.10;99.90
28189;DHT22;15471;51.166;4.470;2023-02-03T13:52:46;11.20;99.90
28189;DHT22;15471;51.166;4.470;2023-02-03T13:55:39;11.00;99.90
28189;DHT22;15471;51.166;4.470;2023-02-03T13:58:19;11.00;99.90
28189;DHT22;15471;51.166;4.470;2023-02-03T14:03:16;11.10;99.90
28189;DHT22;15471;51.166;4.470;2023-02-03T14:05:47;11.00;99.90
28189;DHT22;15471;51.166;4.470;2023-02-03T14:22:08;11.20;99.90
28189;DHT22;15471;51.166;4.470;2023-02-03T14:24:43;11.10;99.90
28189;DHT22;15471;51.166;4.470;2023-02-03T14:27:29;11.10;99.90
28189;DHT22;15471;51.166;4.470;2023-02-03T14:30:06;11.10;99.90
28189;DHT22;15471;51.166;4.470;2023-02-03T14:32:59;11.20;99.90
28189;DHT22;15471;51.166;4.470;2023-02-03T14:35:30;11.40;99.90
28189;DHT22;15471;51.166;4.470;2023-02-03T14:38:01;11.30;99.90
28189;DHT22;15471;51.166;4.470;2023-02-03T14:43:14;11.20;99.90
28189;DHT22;15471;51.166;4.470;2023-02-03T14:51:06;11.20;99.90
28189;DHT22;15471;51.166;4.470;2023-02-03T14:59:40;11.20;99.90
28189;DHT22;15471;51.166;4.470;2023-02-03T15:02:20;11.10;99.90
28189;DHT22;15471;51.166;4.470;2023-02-03T15:04:48;11.10;99.90
28189;DHT22;15471;51.166;4.470;2023-02-03T15:10:11;11.10;99.90
28189;DHT22;15471;51.166;4.470;2023-02-03T15:12:37;11.20;99.90
28189;DHT22;15471;51.166;4.470;2023-02-03T15:15:20;11.20;99.90
28189;DHT22;15471;51.166;4.470;2023-02-03T15:17:52;11.20;99.90
28189;DHT22;15471;51.166;4.470;2023-02-03T15:20:39;11.20;99.90
28189;DHT22;15471;51.166;4.470;2023-02-03T15:23:19;11.20;99.90
28189;DHT22;15471;51.166;4.470;2023-02-03T15:25:51;11.30;99.90
28189;DHT22;15471;51.166;4.470;2023-02-03T15:28:22;11.50;99.90
28189;DHT22;15471;51.166;4.470;2023-02-03T15:30:58;11.40;99.90
28189;DHT22;15471;51.166;4.470;2023-02-03T15:33:26;11.40;99.90
28189;DHT22;15471;51.166;4.470;2023-02-03T15:36:00;11.30;99.90
28189;DHT22;15471;51.166;4.470;2023-02-03T15:38:33;11.20;99.90
28189;DHT22;15471;51.166;4.470;2023-02-03T15:41:00;11.30;99.90
28189;DHT22;15471;51.166;4.470;2023-02-03T15:43:36;11.30;99.90
28189;DHT22;15471;51.166;4.470;2023-02-03T15:48:51;11.30;99.90
28189;DHT22;15471;51.166;4.470;2023-02-03T15:51:27;11.20;99.90
28189;DHT22;15471;51.166;4.470;2023-02-03T15:53:55;11.20;99.90
28189;DHT22;15471;51.166;4.470;2023-02-03T15:56:37;11.30;99.90
28189;DHT22;15471;51.166;4.470;2023-02-03T15:59:21;11.10;99.90
28189;DHT22;15471;51.166;4.470;2023-02-03T16:01:51;10.90;99.90
28189;DHT22;15471;51.166;4.470;2023-02-03T16:04:39;10.90;99.90
28189;DHT22;15471;51.166;4.470;2023-02-03T16:07:05;10.90;99.90
28189;DHT22;15471;51.166;4.470;2023-02-03T16:09:39;10.90;99.90
28189;DHT22;15471;51.166;4.470;2023-02-03T16:12:28;10.90;99.90
28189;DHT22;15471;51.166;4.470;2023-02-03T16:14:56;10.90;99.90
28189;DHT22;15471;51.166;4.470;2023-02-03T16:17:34;10.90;99.90
28189;DHT22;15471;51.166;4.470;2023-02-03T16:22:44;11.10;99.90
28189;DHT22;15471;51.166;4.470;2023-02-03T16:25:31;11.10;99.90
28189;DHT22;15471;51.166;4.470;2023-02-03T16:31:00;11.00;99.90
28189;DHT22;15471;51.166;4.470;2023-02-03T16:33:49;10.90;99.90
28189;DHT22;15471;51.166;4.470;2023-02-03T16:36:38;10.90;99.90
28189;DHT22;15471;51.166;4.470;2023-02-03T16:39:24;10.90;99.90
28189;DHT22;15471;51.166;4.470;2023-02-03T16:42:15;10.70;99.90
28189;DHT22;15471;51.166;4.470;2023-02-03T16:45:00;10.70;99.90
28189;DHT22;15471;51.166;4.470;2023-02-03T16:47:45;10.80;99.90
28189;DHT22;15471;51.166;4.470;2023-02-03T16:50:29;10.80;99.90
28189;DHT22;15471;51.166;4.470;2023-02-03T16:53:37;10.70;99.90
28189;DHT22;15471;51.166;4.470;2023-02-03T16:56:07;10.70;99.90
28189;DHT22;15471;51.166;4.470;2023-02-03T16:58:33;10.60;99.90
28189;DHT22;15471;51.166;4.470;2023-02-03T17:01:00;10.70;99.90
28189;DHT22;15471;51.166;4.470;2023-02-03T17:03:28;10.70;99.90
28189;DHT22;15471;51.166;4.470;2023-02-03T17:05:55;10.70;99.90
28189;DHT22;15471;51.166;4.470;2023-02-03T17:08:23;10.60;99.90
28189;DHT22;15471;51.166;4.470;2023-02-03T17:10:50;10.50;99.90
28189;DHT22;15471;51.166;4.470;2023-02-03T17:13:19;10.50;99.90
28189;DHT22;15471;51.166;4.470;2023-02-03T17:15:48;10.40;99.90
28189;DHT22;15471;51.166;4.470;2023-02-03T17:18:15;10.40;99.90
28189;DHT22;15471;51.166;4.470;2023-02-03T17:20:42;10.40;99.90
28189;DHT22;15471;51.166;4.470;2023-02-03T17:23:08;10.30;99.90
28189;DHT22;15471;51.166;4.470;2023-02-03T17:25:35;10.30;99.90
28189;DHT22;15471;51.166;4.470;2023-02-03T17:28:11;10.20;99.90
28189;DHT22;15471;51.166;4.470;2023-02-03T17:30:38;10.10;99.90
28189;DHT22;15471;51.166;4.470;2023-02-03T17:33:06;10.10;99.90
28189;DHT22;15471;51.166;4.470;2023-02-03T17:35:43;10.10;99.90
28189;DHT22;15471;51.166;4.470;2023-02-03T17:38:11;10.10;99.90
28189;DHT22;15471;51.166;4.470;2023-02-03T17:40:43;10.10;99.90
28189;DHT22;15471;51.166;4.470;2023-02-03T17:43:09;10.00;99.90
28189;DHT22;15471;51.166;4.470;2023-02-03T17:45:40;10.00;99.90
28189;DHT22;15471;51.166;4.470;2023-02-03T17:48:06;10.10;99.90
28189;DHT22;15471;51.166;4.470;2023-02-03T17:50:32;10.10;99.90
28189;DHT22;15471;51.166;4.470;2023-02-03T17:52:58;10.10;99.90
28189;DHT22;15471;51.166;4.470;2023-02-03T17:55:24;10.10;99.90
28189;DHT22;15471;51.166;4.470;2023-02-03T17:57:50;10.20;99.90
28189;DHT22;15471;51.166;4.470;2023-02-03T18:00:16;10.20;99.90
28189;DHT22;15471;51.166;4.470;2023-02-03T18:02:42;10.30;99.90
28189;DHT22;15471;51.166;4.470;2023-02-03T18:05:08;10.30;99.90
28189;DHT22;15471;51.166;4.470;2023-02-03T18:07:34;10.20;99.90
28189;DHT22;15471;51.166;4.470;2023-02-03T18:10:00;10.30;99.90
28189;DHT22;15471;51.166;4.470;2023-02-03T18:12:26;10.30;99.90
28189;DHT22;15471;51.166;4.470;2023-02-03T18:14:52;10.40;99.90
28189;DHT22;15471;51.166;4.470;2023-02-03T18:17:17;10.40;99.90
28189;DHT22;15471;51.166;4.470;2023-02-03T18:19:43;10.40;99.90